Accueil
METAR-TAF:

METAR-TAF

Aéroports :

Montpellier, France

Aéroport de Montpellier-Méditerranée

latitude: 43-35N, longitude: 003-58E, altitude: 5 m

Observation

Le bulletin a été fait il y a 15 minutes, à 10:00 UTC
Vent 15 kt de nord, variant entre nord/nord-ouest et nord-est
Température 14°C
Humidité 31%
Pression 1016 hPa
Visibilité 10 km ou plus
pas de nuages en-dessous de 1500 mètres et pas de cumulonimbus.

METAR: LFMT 281000Z AUTO 36015KT 330V040 CAVOK 14/M03 Q1016 NOSIG

Heure: 12:15 (10:15 UTC)

Prévision

Le bulletin a été fait il y a 2 heures et 15 minutes, à 08:00 UTC
Prévision valable du 28 à 09 UTC au 29 à 09 UTC
Vent 12 kt de nord-ouest
Visibilité 10 km ou plus
pas de nuages en-dessous de 1500 mètres et pas de cumulonimbus.
Evoluant progressivement
du 28 à 09 UTC au 28 à 11 UTC
Vent 12 kt de nord/nord-est

TAF: LFMT 280800Z 2809/2909 31012KT CAVOK BECMG 2809/2811 02012KT

Observations et prévisions météorologiques de plus de 4000 aéroports (messages METAR et TAF).

Les stations disponibles sont représentées par des disques jaunes et rouges sur la carte.

Passer la souris dessus pour voir le nom de la station.

Cliquer dessus pour voir les observations et prévisions météorologiques.

Pour changer de carte: cliquez sur les boutons verts avec une croix noire pour zoomer, sur le bouton vert avec un tiret pour effectuer un zoom arrière, ou sur les flèches vertes pour les cartes adjacentes.


METAR-TAF: